sensor_id;sensor_type;location;lat;lon;timestamp;pressure;altitude;pressure_sealevel;temperature;humidity
35419;BME280;21525;41.240;16.500;2023-04-20T00:00:30;101150.97;;;21.15;61.86
35419;BME280;21525;41.240;16.500;2023-04-20T00:02:55;101145.22;;;21.59;59.71
35419;BME280;21525;41.240;16.500;2023-04-20T00:05:22;101144.16;;;21.28;61.10
35419;BME280;21525;41.240;16.500;2023-04-20T00:07:48;101144.97;;;20.94;62.18
35419;BME280;21525;41.240;16.500;2023-04-20T00:10:14;101141.03;;;20.84;62.89
35419;BME280;21525;41.240;16.500;2023-04-20T00:12:40;101150.22;;;20.77;62.78
35419;BME280;21525;41.240;16.500;2023-04-20T00:15:06;101139.59;;;20.96;61.99
35419;BME280;21525;41.240;16.500;2023-04-20T00:17:32;101142.59;;;20.71;62.77
35419;BME280;21525;41.240;16.500;2023-04-20T00:19:58;101148.53;;;20.76;62.66
35419;BME280;21525;41.240;16.500;2023-04-20T00:22:24;101143.97;;;20.61;62.14
35419;BME280;21525;41.240;16.500;2023-04-20T00:24:50;101142.53;;;20.72;61.87
35419;BME280;21525;41.240;16.500;2023-04-20T00:27:16;101127.94;;;21.00;60.99
35419;BME280;21525;41.240;16.500;2023-04-20T00:29:42;101124.31;;;20.84;60.90
35419;BME280;21525;41.240;16.500;2023-04-20T00:32:08;101127.09;;;20.63;60.91
35419;BME280;21525;41.240;16.500;2023-04-20T00:34:33;101122.63;;;20.83;61.06
35419;BME280;21525;41.240;16.500;2023-04-20T00:37:00;101123.72;;;20.96;59.89
35419;BME280;21525;41.240;16.500;2023-04-20T00:39:26;101116.72;;;21.12;59.52
35419;BME280;21525;41.240;16.500;2023-04-20T00:41:53;101116.88;;;20.92;60.27
35419;BME280;21525;41.240;16.500;2023-04-20T00:44:18;101113.75;;;20.84;60.72
35419;BME280;21525;41.240;16.500;2023-04-20T00:46:44;101121.31;;;20.74;60.58
35419;BME280;21525;41.240;16.500;2023-04-20T00:49:10;101112.44;;;20.75;60.82
35419;BME280;21525;41.240;16.500;2023-04-20T00:51:36;101114.31;;;20.73;61.02
35419;BME280;21525;41.240;16.500;2023-04-20T00:54:03;101101.00;;;20.74;61.14
35419;BME280;21525;41.240;16.500;2023-04-20T00:56:29;101097.28;;;20.78;61.29
35419;BME280;21525;41.240;16.500;2023-04-20T00:58:55;101100.78;;;20.96;60.18
35419;BME280;21525;41.240;16.500;2023-04-20T01:01:21;101105.97;;;20.80;60.55
35419;BME280;21525;41.240;16.500;2023-04-20T01:03:48;101096.97;;;20.85;60.56
35419;BME280;21525;41.240;16.500;2023-04-20T01:06:14;101105.31;;;20.58;61.36
35419;BME280;21525;41.240;16.500;2023-04-20T01:08:50;101098.47;;;20.54;61.61
35419;BME280;21525;41.240;16.500;2023-04-20T01:11:16;101095.22;;;20.66;61.42
35419;BME280;21525;41.240;16.500;2023-04-20T01:13:42;101090.50;;;20.73;61.28
35419;BME280;21525;41.240;16.500;2023-04-20T01:16:08;101095.31;;;20.82;61.34
35419;BME280;21525;41.240;16.500;2023-04-20T01:18:42;101098.38;;;20.74;61.42
35419;BME280;21525;41.240;16.500;2023-04-20T01:21:10;101096.88;;;20.86;61.18
35419;BME280;21525;41.240;16.500;2023-04-20T01:23:36;101097.03;;;20.83;60.81
35419;BME280;21525;41.240;16.500;2023-04-20T01:26:07;101090.44;;;20.74;61.39
35419;BME280;21525;41.240;16.500;2023-04-20T01:28:33;101093.84;;;20.76;61.55
35419;BME280;21525;41.240;16.500;2023-04-20T01:30:59;101085.69;;;20.81;61.13
35419;BME280;21525;41.240;16.500;2023-04-20T01:33:25;101087.16;;;20.69;61.09
35419;BME280;21525;41.240;16.500;2023-04-20T01:35:52;101090.91;;;21.00;60.50
35419;BME280;21525;41.240;16.500;2023-04-20T01:38:19;101085.66;;;20.64;61.27
35419;BME280;21525;41.240;16.500;2023-04-20T01:40:45;101086.38;;;20.67;61.23
35419;BME280;21525;41.240;16.500;2023-04-20T01:43:11;101083.75;;;21.02;60.28
35419;BME280;21525;41.240;16.500;2023-04-20T01:45:37;101081.09;;;20.85;60.29
35419;BME280;21525;41.240;16.500;2023-04-20T01:48:03;101083.44;;;20.73;61.06
35419;BME280;21525;41.240;16.500;2023-04-20T01:50:29;101086.41;;;21.02;60.07
35419;BME280;21525;41.240;16.500;2023-04-20T01:52:55;101080.72;;;20.75;60.42
35419;BME280;21525;41.240;16.500;2023-04-20T01:55:20;101078.44;;;20.85;60.16
35419;BME280;21525;41.240;16.500;2023-04-20T01:57:46;101084.63;;;20.30;61.32
35419;BME280;21525;41.240;16.500;2023-04-20T02:00:12;101079.50;;;20.46;61.45
35419;BME280;21525;41.240;16.500;2023-04-20T02:02:41;101078.88;;;20.41;60.62
35419;BME280;21525;41.240;16.500;2023-04-20T02:05:07;101077.22;;;20.38;61.09
35419;BME280;21525;41.240;16.500;2023-04-20T02:07:33;101074.00;;;20.68;60.11
35419;BME280;21525;41.240;16.500;2023-04-20T02:09:58;101071.47;;;20.29;60.95
35419;BME280;21525;41.240;16.500;2023-04-20T02:12:24;101071.94;;;20.01;61.52
35419;BME280;21525;41.240;16.500;2023-04-20T02:14:50;101070.50;;;20.12;61.03
35419;BME280;21525;41.240;16.500;2023-04-20T02:17:16;101075.75;;;20.31;60.15
35419;BME280;21525;41.240;16.500;2023-04-20T02:19:43;101065.22;;;20.12;60.79
35419;BME280;21525;41.240;16.500;2023-04-20T02:22:08;101070.84;;;20.24;60.65
35419;BME280;21525;41.240;16.500;2023-04-20T02:24:34;101065.94;;;19.97;61.04
35419;BME280;21525;41.240;16.500;2023-04-20T02:27:00;101064.41;;;20.29;60.60
35419;BME280;21525;41.240;16.500;2023-04-20T02:29:25;101064.31;;;20.13;61.42
35419;BME280;21525;41.240;16.500;2023-04-20T02:31:51;101063.00;;;20.03;61.32
35419;BME280;21525;41.240;16.500;2023-04-20T02:34:17;101052.56;;;20.19;61.18
35419;BME280;21525;41.240;16.500;2023-04-20T02:36:42;101044.44;;;20.42;59.94
35419;BME280;21525;41.240;16.500;2023-04-20T02:39:11;101040.72;;;20.47;59.48
35419;BME280;21525;41.240;16.500;2023-04-20T02:41:37;101038.63;;;20.53;59.15
35419;BME280;21525;41.240;16.500;2023-04-20T02:44:03;101032.88;;;20.62;59.21
35419;BME280;21525;41.240;16.500;2023-04-20T02:46:31;101034.94;;;20.38;59.41
35419;BME280;21525;41.240;16.500;2023-04-20T02:48:57;101033.03;;;20.59;59.19
35419;BME280;21525;41.240;16.500;2023-04-20T02:51:24;101032.69;;;20.48;58.95
35419;BME280;21525;41.240;16.500;2023-04-20T02:53:50;101031.50;;;20.36;59.47
35419;BME280;21525;41.240;16.500;2023-04-20T02:56:27;101032.44;;;20.17;59.53
35419;BME280;21525;41.240;16.500;2023-04-20T02:58:55;101027.72;;;20.42;59.22
35419;BME280;21525;41.240;16.500;2023-04-20T03:01:26;101025.78;;;20.27;59.77
35419;BME280;21525;41.240;16.500;2023-04-20T03:03:59;101038.03;;;20.10;60.18
35419;BME280;21525;41.240;16.500;2023-04-20T03:06:25;101042.69;;;20.05;60.56
35419;BME280;21525;41.240;16.500;2023-04-20T03:08:54;101036.78;;;20.18;60.51
35419;BME280;21525;41.240;16.500;2023-04-20T03:11:47;101034.50;;;20.29;59.81
35419;BME280;21525;41.240;16.500;2023-04-20T03:14:25;101027.50;;;20.28;59.83
35419;BME280;21525;41.240;16.500;2023-04-20T03:16:50;101035.59;;;20.06;61.09
35419;BME280;21525;41.240;16.500;2023-04-20T03:19:17;101034.16;;;20.18;60.72
35419;BME280;21525;41.240;16.500;2023-04-20T03:21:43;101031.66;;;20.14;60.47
35419;BME280;21525;41.240;16.500;2023-04-20T03:24:09;101026.28;;;20.35;58.89
35419;BME280;21525;41.240;16.500;2023-04-20T03:26:35;101025.16;;;20.40;58.68
35419;BME280;21525;41.240;16.500;2023-04-20T03:29:16;101027.13;;;20.35;58.85
35419;BME280;21525;41.240;16.500;2023-04-20T03:31:43;101018.78;;;20.26;59.43
35419;BME280;21525;41.240;16.500;2023-04-20T03:34:10;101022.28;;;20.26;59.27
35419;BME280;21525;41.240;16.500;2023-04-20T03:36:36;101016.94;;;20.28;58.95
35419;BME280;21525;41.240;16.500;2023-04-20T03:39:02;101023.59;;;20.18;59.23
35419;BME280;21525;41.240;16.500;2023-04-20T03:41:29;101023.06;;;20.28;59.21
35419;BME280;21525;41.240;16.500;2023-04-20T03:43:55;101023.91;;;20.11;59.47
35419;BME280;21525;41.240;16.500;2023-04-20T03:46:21;101023.41;;;20.03;59.26
35419;BME280;21525;41.240;16.500;2023-04-20T03:48:47;101024.69;;;20.13;59.02
35419;BME280;21525;41.240;16.500;2023-04-20T03:51:12;101029.47;;;20.05;nan
35419;BME280;21525;41.240;16.500;2023-04-20T03:53:38;101023.72;;;20.14;58.41
35419;BME280;21525;41.240;16.500;2023-04-20T03:56:04;101016.91;;;19.92;59.23
35419;BME280;21525;41.240;16.500;2023-04-20T03:58:30;101023.41;;;20.03;59.32
35419;BME280;21525;41.240;16.500;2023-04-20T04:01:09;101030.66;;;20.17;58.33
35419;BME280;21525;41.240;16.500;2023-04-20T04:03:40;101018.72;;;20.27;58.32
35419;BME280;21525;41.240;16.500;2023-04-20T04:06:08;101030.25;;;20.07;58.98
35419;BME280;21525;41.240;16.500;2023-04-20T04:08:34;101028.66;;;20.22;58.48
35419;BME280;21525;41.240;16.500;2023-04-20T04:11:01;101041.28;;;20.16;58.61
35419;BME280;21525;41.240;16.500;2023-04-20T04:13:27;101041.88;;;20.03;58.81
35419;BME280;21525;41.240;16.500;2023-04-20T04:15:52;101040.97;;;20.04;58.92
35419;BME280;21525;41.240;16.500;2023-04-20T04:18:20;101026.44;;;20.32;58.42
35419;BME280;21525;41.240;16.500;2023-04-20T04:20:47;101036.50;;;20.24;58.48
35419;BME280;21525;41.240;16.500;2023-04-20T04:23:13;101044.25;;;20.09;59.02
35419;BME280;21525;41.240;16.500;2023-04-20T04:25:56;101044.59;;;20.39;58.41
35419;BME280;21525;41.240;16.500;2023-04-20T04:28:24;101048.94;;;20.40;57.80
35419;BME280;21525;41.240;16.500;2023-04-20T04:31:01;101056.09;;;20.38;57.55
35419;BME280;21525;41.240;16.500;2023-04-20T04:33:32;101042.78;;;20.76;56.98
35419;BME280;21525;41.240;16.500;2023-04-20T04:35:59;101041.81;;;22.26;52.38
35419;BME280;21525;41.240;16.500;2023-04-20T04:38:25;101033.03;;;23.60;49.23
35419;BME280;21525;41.240;16.500;2023-04-20T04:40:52;101042.28;;;23.81;47.76
35419;BME280;21525;41.240;16.500;2023-04-20T04:43:18;101040.53;;;24.08;47.23
35419;BME280;21525;41.240;16.500;2023-04-20T04:45:52;101034.31;;;23.81;46.97
35419;BME280;21525;41.240;16.500;2023-04-20T04:48:20;101037.81;;;23.96;46.61
35419;BME280;21525;41.240;16.500;2023-04-20T04:50:45;101037.09;;;24.21;45.74
35419;BME280;21525;41.240;16.500;2023-04-20T04:53:11;101037.72;;;24.65;44.43
35419;BME280;21525;41.240;16.500;2023-04-20T04:55:37;101035.72;;;24.42;44.87
35419;BME280;21525;41.240;16.500;2023-04-20T04:58:03;101045.06;;;24.06;45.77
35419;BME280;21525;41.240;16.500;2023-04-20T05:00:29;101046.44;;;24.40;45.03
35419;BME280;21525;41.240;16.500;2023-04-20T05:02:55;101046.78;;;24.36;44.79
35419;BME280;21525;41.240;16.500;2023-04-20T05:05:22;101038.47;;;24.67;45.08
35419;BME280;21525;41.240;16.500;2023-04-20T05:07:48;101038.78;;;25.28;43.74
35419;BME280;21525;41.240;16.500;2023-04-20T05:10:13;101035.88;;;26.66;42.01
35419;BME280;21525;41.240;16.500;2023-04-20T05:12:39;101038.66;;;26.64;40.83
35419;BME280;21525;41.240;16.500;2023-04-20T05:15:05;101042.34;;;26.74;40.09
35419;BME280;21525;41.240;16.500;2023-04-20T05:17:31;101037.94;;;26.97;39.79
35419;BME280;21525;41.240;16.500;2023-04-20T05:19:57;101030.09;;;27.07;39.80
35419;BME280;21525;41.240;16.500;2023-04-20T05:22:22;101036.59;;;27.71;38.58
35419;BME280;21525;41.240;16.500;2023-04-20T05:24:48;101039.53;;;28.66;37.50
35419;BME280;21525;41.240;16.500;2023-04-20T05:27:14;101032.38;;;30.39;34.49
35419;BME280;21525;41.240;16.500;2023-04-20T05:29:40;101031.06;;;29.74;34.98
35419;BME280;21525;41.240;16.500;2023-04-20T05:32:06;101038.06;;;28.41;36.97
35419;BME280;21525;41.240;16.500;2023-04-20T05:34:31;101039.94;;;28.18;36.93
35419;BME280;21525;41.240;16.500;2023-04-20T05:36:58;101052.41;;;27.86;37.90
35419;BME280;21525;41.240;16.500;2023-04-20T05:39:24;101056.41;;;27.91;37.89
35419;BME280;21525;41.240;16.500;2023-04-20T05:41:49;101050.06;;;28.03;37.51
35419;BME280;21525;41.240;16.500;2023-04-20T05:44:15;101052.94;;;28.34;37.56
35419;BME280;21525;41.240;16.500;2023-04-20T05:46:41;101052.03;;;29.60;35.53
35419;BME280;21525;41.240;16.500;2023-04-20T05:49:07;101048.06;;;30.73;34.20
35419;BME280;21525;41.240;16.500;2023-04-20T05:51:33;101052.31;;;30.76;34.46
35419;BME280;21525;41.240;16.500;2023-04-20T05:53:59;101050.16;;;30.89;34.17
35419;BME280;21525;41.240;16.500;2023-04-20T05:56:25;101054.81;;;31.72;33.02
35419;BME280;21525;41.240;16.500;2023-04-20T05:58:52;101050.03;;;33.35;30.95
35419;BME280;21525;41.240;16.500;2023-04-20T06:01:19;101049.63;;;34.32;29.48
35419;BME280;21525;41.240;16.500;2023-04-20T06:03:44;101050.31;;;33.92;31.14
35419;BME280;21525;41.240;16.500;2023-04-20T06:06:12;101056.09;;;35.05;30.29
35419;BME280;21525;41.240;16.500;2023-04-20T06:08:38;101052.19;;;34.75;29.88
35419;BME280;21525;41.240;16.500;2023-04-20T06:11:03;101055.81;;;34.25;30.50
35419;BME280;21525;41.240;16.500;2023-04-20T06:13:29;101057.94;;;34.80;30.39
35419;BME280;21525;41.240;16.500;2023-04-20T06:15:55;101060.94;;;35.09;29.59
35419;BME280;21525;41.240;16.500;2023-04-20T06:18:21;101070.41;;;33.64;30.17
35419;BME280;21525;41.240;16.500;2023-04-20T06:20:46;101061.22;;;34.25;30.07
35419;BME280;21525;41.240;16.500;2023-04-20T06:23:12;101063.50;;;33.95;29.59
35419;BME280;21525;41.240;16.500;2023-04-20T06:25:38;101064.19;;;34.72;28.80
35419;BME280;21525;41.240;16.500;2023-04-20T06:28:04;101074.47;;;33.16;31.43
35419;BME280;21525;41.240;16.500;2023-04-20T06:30:31;101083.25;;;31.65;33.43
35419;BME280;21525;41.240;16.500;2023-04-20T06:32:59;101075.19;;;30.99;33.90
35419;BME280;21525;41.240;16.500;2023-04-20T06:35:25;101076.47;;;31.04;34.36
35419;BME280;21525;41.240;16.500;2023-04-20T06:37:51;101076.53;;;30.26;35.29
35419;BME280;21525;41.240;16.500;2023-04-20T06:40:17;101081.25;;;30.43;35.47
35419;BME280;21525;41.240;16.500;2023-04-20T06:42:44;101090.63;;;29.78;36.07
35419;BME280;21525;41.240;16.500;2023-04-20T06:45:10;101088.22;;;29.24;37.26
35419;BME280;21525;41.240;16.500;2023-04-20T06:47:36;101090.78;;;28.93;38.05
35419;BME280;21525;41.240;16.500;2023-04-20T06:50:04;101099.09;;;28.47;38.65
35419;BME280;21525;41.240;16.500;2023-04-20T06:52:35;101091.47;;;28.86;38.48
35419;BME280;21525;41.240;16.500;2023-04-20T06:55:01;101086.31;;;29.15;38.32
35419;BME280;21525;41.240;16.500;2023-04-20T06:57:27;101090.19;;;29.42;37.62
35419;BME280;21525;41.240;16.500;2023-04-20T06:59:52;101093.88;;;28.77;38.30
35419;BME280;21525;41.240;16.500;2023-04-20T07:02:18;101097.78;;;28.30;39.04
35419;BME280;21525;41.240;16.500;2023-04-20T07:04:44;101110.22;;;28.09;40.13
35419;BME280;21525;41.240;16.500;2023-04-20T07:07:10;101110.22;;;27.98;39.95
35419;BME280;21525;41.240;16.500;2023-04-20T07:09:35;101106.47;;;27.89;39.97
35419;BME280;21525;41.240;16.500;2023-04-20T07:12:01;101098.88;;;28.39;39.59
35419;BME280;21525;41.240;16.500;2023-04-20T07:14:27;101103.41;;;27.14;41.93
35419;BME280;21525;41.240;16.500;2023-04-20T07:16:54;101110.97;;;27.31;41.85
35419;BME280;21525;41.240;16.500;2023-04-20T07:19:20;101104.78;;;27.20;41.94
35419;BME280;21525;41.240;16.500;2023-04-20T07:21:46;101107.06;;;27.59;42.25
35419;BME280;21525;41.240;16.500;2023-04-20T07:24:12;101109.03;;;27.91;40.55
35419;BME280;21525;41.240;16.500;2023-04-20T07:26:38;101110.19;;;27.07;42.12
35419;BME280;21525;41.240;16.500;2023-04-20T07:29:03;101104.72;;;27.55;42.47
35419;BME280;21525;41.240;16.500;2023-04-20T07:31:29;101112.53;;;27.91;41.11
35419;BME280;21525;41.240;16.500;2023-04-20T07:33:55;101107.81;;;27.84;41.02
35419;BME280;21525;41.240;16.500;2023-04-20T07:36:21;101109.22;;;28.43;40.64
35419;BME280;21525;41.240;16.500;2023-04-20T07:38:47;101109.81;;;29.11;39.10
35419;BME280;21525;41.240;16.500;2023-04-20T07:41:14;101113.63;;;28.11;39.58
35419;BME280;21525;41.240;16.500;2023-04-20T07:43:40;101118.63;;;27.82;40.94
35419;BME280;21525;41.240;16.500;2023-04-20T07:46:06;101114.72;;;28.20;40.29
35419;BME280;21525;41.240;16.500;2023-04-20T07:48:35;101105.25;;;27.93;41.52
35419;BME280;21525;41.240;16.500;2023-04-20T07:51:01;101107.16;;;28.02;41.35
35419;BME280;21525;41.240;16.500;2023-04-20T07:53:28;101107.81;;;27.84;41.30
35419;BME280;21525;41.240;16.500;2023-04-20T07:55:53;101112.91;;;27.29;41.11
35419;BME280;21525;41.240;16.500;2023-04-20T07:58:19;101117.41;;;26.46;43.38
35419;BME280;21525;41.240;16.500;2023-04-20T08:00:46;101115.13;;;26.76;42.51
35419;BME280;21525;41.240;16.500;2023-04-20T08:03:13;101114.38;;;27.33;42.27
35419;BME280;21525;41.240;16.500;2023-04-20T08:05:39;101120.13;;;27.05;42.47
35419;BME280;21525;41.240;16.500;2023-04-20T08:08:07;101112.78;;;27.20;42.28
35419;BME280;21525;41.240;16.500;2023-04-20T08:10:33;101111.72;;;27.33;41.97
35419;BME280;21525;41.240;16.500;2023-04-20T08:12:59;101110.41;;;27.50;42.16
35419;BME280;21525;41.240;16.500;2023-04-20T08:15:24;101110.44;;;27.95;41.42
35419;BME280;21525;41.240;16.500;2023-04-20T08:17:50;101110.13;;;26.72;42.50
35419;BME280;21525;41.240;16.500;2023-04-20T08:20:17;101103.53;;;26.65;43.02
35419;BME280;21525;41.240;16.500;2023-04-20T08:22:43;101100.69;;;27.03;42.89
35419;BME280;21525;41.240;16.500;2023-04-20T08:25:09;101101.56;;;27.94;41.98
35419;BME280;21525;41.240;16.500;2023-04-20T08:27:35;101111.09;;;26.71;43.98
35419;BME280;21525;41.240;16.500;2023-04-20T08:30:03;101107.53;;;26.83;43.64
35419;BME280;21525;41.240;16.500;2023-04-20T08:32:30;101107.03;;;26.30;44.96
35419;BME280;21525;41.240;16.500;2023-04-20T08:34:56;101105.16;;;25.82;44.95
35419;BME280;21525;41.240;16.500;2023-04-20T08:37:22;101099.88;;;26.31;45.36
35419;BME280;21525;41.240;16.500;2023-04-20T08:39:48;101106.34;;;26.63;44.27
35419;BME280;21525;41.240;16.500;2023-04-20T08:42:13;101095.13;;;25.85;45.23
35419;BME280;21525;41.240;16.500;2023-04-20T08:44:41;101097.25;;;25.80;46.46
35419;BME280;21525;41.240;16.500;2023-04-20T08:47:09;101093.63;;;27.26;44.47
35419;BME280;21525;41.240;16.500;2023-04-20T08:49:36;101097.84;;;26.22;45.68
35419;BME280;21525;41.240;16.500;2023-04-20T08:52:04;101087.03;;;25.87;46.39
35419;BME280;21525;41.240;16.500;2023-04-20T08:54:29;101100.91;;;24.62;49.58
35419;BME280;21525;41.240;16.500;2023-04-20T08:56:55;101091.97;;;24.75;50.52
35419;BME280;21525;41.240;16.500;2023-04-20T08:59:21;101098.13;;;24.36;53.46
35419;BME280;21525;41.240;16.500;2023-04-20T09:01:47;101096.53;;;24.61;52.47
35419;BME280;21525;41.240;16.500;2023-04-20T09:04:25;101087.88;;;25.62;49.60
35419;BME280;21525;41.240;16.500;2023-04-20T09:06:54;101098.28;;;24.48;52.57
35419;BME280;21525;41.240;16.500;2023-04-20T09:09:22;101096.66;;;24.04;53.83
35419;BME280;21525;41.240;16.500;2023-04-20T09:12:03;101089.41;;;24.34;54.02
35419;BME280;21525;41.240;16.500;2023-04-20T09:14:30;101093.13;;;24.03;54.24
35419;BME280;21525;41.240;16.500;2023-04-20T09:17:06;101089.69;;;24.16;54.02
35419;BME280;21525;41.240;16.500;2023-04-20T09:19:32;101085.81;;;24.48;53.29
35419;BME280;21525;41.240;16.500;2023-04-20T09:21:58;101081.66;;;24.71;53.02
35419;BME280;21525;41.240;16.500;2023-04-20T09:24:33;101082.97;;;25.56;50.62
35419;BME280;21525;41.240;16.500;2023-04-20T09:27:01;101089.72;;;24.01;51.54
35419;BME280;21525;41.240;16.500;2023-04-20T09:29:27;101088.44;;;24.21;52.43
35419;BME280;21525;41.240;16.500;2023-04-20T09:31:54;101078.94;;;24.85;51.94
35419;BME280;21525;41.240;16.500;2023-04-20T09:34:22;101080.72;;;23.61;56.02
35419;BME280;21525;41.240;16.500;2023-04-20T09:36:51;101076.56;;;24.68;54.39
35419;BME280;21525;41.240;16.500;2023-04-20T09:39:20;101084.22;;;23.62;56.80
35419;BME280;21525;41.240;16.500;2023-04-20T09:41:48;101076.78;;;24.09;56.54
35419;BME280;21525;41.240;16.500;2023-04-20T09:44:15;101081.06;;;24.53;55.84
35419;BME280;21525;41.240;16.500;2023-04-20T09:46:41;101078.91;;;23.76;57.03
35419;BME280;21525;41.240;16.500;2023-04-20T09:49:09;101085.34;;;23.13;60.23
35419;BME280;21525;41.240;16.500;2023-04-20T09:51:37;101080.91;;;23.58;59.64
35419;BME280;21525;41.240;16.500;2023-04-20T09:54:04;101086.13;;;24.02;58.73
35419;BME280;21525;41.240;16.500;2023-04-20T09:56:31;101074.81;;;24.94;58.44
35419;BME280;21525;41.240;16.500;2023-04-20T09:58:59;101082.97;;;25.43;56.19
35419;BME280;21525;41.240;16.500;2023-04-20T10:01:25;101084.44;;;23.43;60.61
35419;BME280;21525;41.240;16.500;2023-04-20T10:03:52;101080.75;;;24.31;58.56
35419;BME280;21525;41.240;16.500;2023-04-20T10:06:21;101078.78;;;24.06;60.02
35419;BME280;21525;41.240;16.500;2023-04-20T10:08:48;101080.41;;;23.80;62.00
35419;BME280;21525;41.240;16.500;2023-04-20T10:11:35;101081.81;;;22.37;68.03
35419;BME280;21525;41.240;16.500;2023-04-20T10:14:14;101069.63;;;23.55;63.39
35419;BME280;21525;41.240;16.500;2023-04-20T10:16:44;101075.88;;;23.68;67.10
35419;BME280;21525;41.240;16.500;2023-04-20T10:19:11;101068.13;;;23.21;70.84
35419;BME280;21525;41.240;16.500;2023-04-20T10:21:48;101071.41;;;22.96;72.92
35419;BME280;21525;41.240;16.500;2023-04-20T10:24:14;101064.81;;;23.17;71.11
35419;BME280;21525;41.240;16.500;2023-04-20T10:26:43;101075.94;;;23.08;71.50
35419;BME280;21525;41.240;16.500;2023-04-20T10:29:25;101068.41;;;23.60;67.32
35419;BME280;21525;41.240;16.500;2023-04-20T10:31:52;101064.16;;;22.68;72.96
35419;BME280;21525;41.240;16.500;2023-04-20T10:34:35;101058.66;;;22.41;71.70
35419;BME280;21525;41.240;16.500;2023-04-20T10:37:11;101059.63;;;23.30;69.81
35419;BME280;21525;41.240;16.500;2023-04-20T10:39:46;101055.06;;;23.32;69.54
35419;BME280;21525;41.240;16.500;2023-04-20T10:42:13;101057.72;;;22.26;74.79
35419;BME280;21525;41.240;16.500;2023-04-20T10:44:54;101052.72;;;22.67;73.33
35419;BME280;21525;41.240;16.500;2023-04-20T10:47:30;101049.50;;;22.92;72.53
35419;BME280;21525;41.240;16.500;2023-04-20T10:50:16;101038.59;;;23.55;69.39
35419;BME280;21525;41.240;16.500;2023-04-20T10:52:43;101029.94;;;22.33;76.22
35419;BME280;21525;41.240;16.500;2023-04-20T10:55:20;101034.69;;;22.58;78.26
35419;BME280;21525;41.240;16.500;2023-04-20T10:57:46;101031.81;;;22.16;81.70
35419;BME280;21525;41.240;16.500;2023-04-20T11:00:20;101034.78;;;22.87;76.13
35419;BME280;21525;41.240;16.500;2023-04-20T11:02:53;101037.03;;;22.78;73.18
35419;BME280;21525;41.240;16.500;2023-04-20T11:05:20;101050.31;;;21.84;80.52
35419;BME280;21525;41.240;16.500;2023-04-20T11:07:53;101037.09;;;22.93;77.52
35419;BME280;21525;41.240;16.500;2023-04-20T11:10:21;101020.97;;;23.54;70.61
35419;BME280;21525;41.240;16.500;2023-04-20T11:12:47;101028.38;;;23.63;68.11
35419;BME280;21525;41.240;16.500;2023-04-20T11:15:13;101010.19;;;22.69;68.81
35419;BME280;21525;41.240;16.500;2023-04-20T11:34:41;101019.41;;;21.69;100.00
35419;BME280;21525;41.240;16.500;2023-04-20T11:37:09;101017.72;;;21.51;100.00
35419;BME280;21525;41.240;16.500;2023-04-20T11:39:37;101007.69;;;22.82;86.80
35419;BME280;21525;41.240;16.500;2023-04-20T11:42:04;101009.47;;;22.81;83.97
35419;BME280;21525;41.240;16.500;2023-04-20T11:44:30;101007.13;;;22.61;84.43
35419;BME280;21525;41.240;16.500;2023-04-20T11:46:56;101002.19;;;22.09;86.41
35419;BME280;21525;41.240;16.500;2023-04-20T11:49:23;101006.75;;;23.55;79.76
35419;BME280;21525;41.240;16.500;2023-04-20T11:51:49;101010.78;;;21.97;85.20
35419;BME280;21525;41.240;16.500;2023-04-20T11:54:15;101008.38;;;22.39;83.43
35419;BME280;21525;41.240;16.500;2023-04-20T11:56:44;101014.75;;;23.39;77.47
35419;BME280;21525;41.240;16.500;2023-04-20T11:59:11;101011.28;;;23.25;76.30
35419;BME280;21525;41.240;16.500;2023-04-20T12:01:38;101013.28;;;22.61;78.67
35419;BME280;21525;41.240;16.500;2023-04-20T12:04:04;101016.72;;;22.63;80.12
35419;BME280;21525;41.240;16.500;2023-04-20T12:06:30;101005.00;;;23.83;73.50
35419;BME280;21525;41.240;16.500;2023-04-20T12:08:59;101001.34;;;23.57;74.72
35419;BME280;21525;41.240;16.500;2023-04-20T12:11:25;101004.31;;;22.94;76.34
35419;BME280;21525;41.240;16.500;2023-04-20T12:13:51;101009.34;;;22.38;79.81
35419;BME280;21525;41.240;16.500;2023-04-20T12:16:19;101009.50;;;22.35;82.79
35419;BME280;21525;41.240;16.500;2023-04-20T12:18:45;101002.44;;;22.04;84.25
35419;BME280;21525;41.240;16.500;2023-04-20T12:21:11;101016.09;;;21.48;87.23
35419;BME280;21525;41.240;16.500;2023-04-20T12:23:36;100983.59;;;22.40;82.46
35419;BME280;21525;41.240;16.500;2023-04-20T12:28:29;101000.69;;;21.72;85.14
35419;BME280;21525;41.240;16.500;2023-04-20T12:30:55;100989.84;;;23.28;78.22
35419;BME280;21525;41.240;16.500;2023-04-20T12:33:21;100995.38;;;22.81;77.42
35419;BME280;21525;41.240;16.500;2023-04-20T12:35:47;100994.56;;;22.94;76.24
35419;BME280;21525;41.240;16.500;2023-04-20T12:38:13;100985.75;;;22.94;77.33
35419;BME280;21525;41.240;16.500;2023-04-20T12:40:39;100981.34;;;23.65;74.59
35419;BME280;21525;41.240;16.500;2023-04-20T12:43:04;100977.25;;;23.60;72.37
35419;BME280;21525;41.240;16.500;2023-04-20T12:45:30;100990.47;;;22.59;78.10
35419;BME280;21525;41.240;16.500;2023-04-20T12:47:56;100987.25;;;22.08;78.32
35419;BME280;21525;41.240;16.500;2023-04-20T12:50:23;100984.22;;;22.90;76.59
35419;BME280;21525;41.240;16.500;2023-04-20T12:52:49;100993.44;;;22.68;78.28
35419;BME280;21525;41.240;16.500;2023-04-20T12:55:17;100983.09;;;22.18;78.88
35419;BME280;21525;41.240;16.500;2023-04-20T12:57:43;100970.03;;;23.19;75.63
35419;BME280;21525;41.240;16.500;2023-04-20T13:00:09;100967.28;;;22.76;75.85